Terminal Aerodrome Forecast
Issued by NWS Tuscon, AZ

Home | Current Version | Previous Version | Text Only | Print | Product List | Glossary On
Versions: 1 2 3 4 5 6 7 8 9 10 11 12 13 14 15 16 17 18 19
000
FTUS45 KTWC 311700 CCA
TAFTUS
TAF COR
KTUS 311725Z 3118/0118 20008KT P6SM FEW070 SCT120 BKN200
     FM312200 30009KT P6SM VCSH FEW080 SCT120 BKN200
     FM010100 25007KT P6SM VCSH SCT080 BKN120 BKN200
     FM010600 15006KT P6SM FEW080 SCT120 BKN200=

USA.gov is the U.S. government's official web portal to all federal, state and local government web resources and services.